sensor_id;sensor_type;location;lat;lon;timestamp;P1;durP1;ratioP1;P2;durP2;ratioP2
54408;SDS011;40315;48.620;9.828;2022-07-23T00:00:15;7.20;;;6.50;;
54408;SDS011;40315;48.620;9.828;2022-07-23T00:02:44;6.43;;;5.82;;
54408;SDS011;40315;48.620;9.828;2022-07-23T00:05:11;6.68;;;5.97;;
54408;SDS011;40315;48.620;9.828;2022-07-23T00:07:38;6.88;;;6.15;;
54408;SDS011;40315;48.620;9.828;2022-07-23T00:10:06;7.10;;;6.40;;
54408;SDS011;40315;48.620;9.828;2022-07-23T00:12:34;6.80;;;6.10;;
54408;SDS011;40315;48.620;9.828;2022-07-23T00:15:02;7.47;;;6.68;;
54408;SDS011;40315;48.620;9.828;2022-07-23T00:17:30;7.47;;;6.47;;
54408;SDS011;40315;48.620;9.828;2022-07-23T00:19:59;8.93;;;7.43;;
54408;SDS011;40315;48.620;9.828;2022-07-23T00:22:27;7.68;;;6.78;;
54408;SDS011;40315;48.620;9.828;2022-07-23T00:24:54;8.32;;;6.88;;
54408;SDS011;40315;48.620;9.828;2022-07-23T00:27:21;7.13;;;6.25;;
54408;SDS011;40315;48.620;9.828;2022-07-23T00:29:49;6.60;;;5.95;;
54408;SDS011;40315;48.620;9.828;2022-07-23T00:32:16;7.15;;;6.45;;
54408;SDS011;40315;48.620;9.828;2022-07-23T00:37:19;7.10;;;6.43;;
54408;SDS011;40315;48.620;9.828;2022-07-23T00:39:46;7.97;;;6.80;;
54408;SDS011;40315;48.620;9.828;2022-07-23T00:42:14;7.43;;;6.72;;
54408;SDS011;40315;48.620;9.828;2022-07-23T00:44:41;7.28;;;6.57;;
54408;SDS011;40315;48.620;9.828;2022-07-23T00:47:08;6.97;;;6.20;;
54408;SDS011;40315;48.620;9.828;2022-07-23T00:49:36;6.63;;;6.03;;
54408;SDS011;40315;48.620;9.828;2022-07-23T00:55:16;6.90;;;6.20;;
54408;SDS011;40315;48.620;9.828;2022-07-23T01:00:16;6.65;;;5.95;;
54408;SDS011;40315;48.620;9.828;2022-07-23T01:02:44;6.15;;;5.47;;
54408;SDS011;40315;48.620;9.828;2022-07-23T01:05:13;6.10;;;5.50;;
54408;SDS011;40315;48.620;9.828;2022-07-23T01:07:44;7.00;;;5.93;;
54408;SDS011;40315;48.620;9.828;2022-07-23T01:10:12;6.00;;;5.50;;
54408;SDS011;40315;48.620;9.828;2022-07-23T01:12:59;5.60;;;5.10;;
54408;SDS011;40315;48.620;9.828;2022-07-23T01:15:30;6.85;;;6.10;;
54408;SDS011;40315;48.620;9.828;2022-07-23T01:17:58;7.55;;;6.43;;
54408;SDS011;40315;48.620;9.828;2022-07-23T01:20:25;7.07;;;6.38;;
54408;SDS011;40315;48.620;9.828;2022-07-23T01:22:55;7.80;;;7.03;;
54408;SDS011;40315;48.620;9.828;2022-07-23T01:25:22;7.47;;;6.10;;
54408;SDS011;40315;48.620;9.828;2022-07-23T01:27:55;7.03;;;6.35;;
54408;SDS011;40315;48.620;9.828;2022-07-23T01:30:22;8.63;;;6.40;;
54408;SDS011;40315;48.620;9.828;2022-07-23T01:32:53;7.00;;;5.93;;
54408;SDS011;40315;48.620;9.828;2022-07-23T01:35:20;8.48;;;7.38;;
54408;SDS011;40315;48.620;9.828;2022-07-23T01:37:48;8.15;;;7.40;;
54408;SDS011;40315;48.620;9.828;2022-07-23T01:44:00;7.78;;;6.97;;
54408;SDS011;40315;48.620;9.828;2022-07-23T01:46:28;7.07;;;6.28;;
54408;SDS011;40315;48.620;9.828;2022-07-23T01:48:56;6.95;;;6.25;;
54408;SDS011;40315;48.620;9.828;2022-07-23T01:51:43;6.38;;;5.78;;
54408;SDS011;40315;48.620;9.828;2022-07-23T01:54:24;7.35;;;6.65;;
54408;SDS011;40315;48.620;9.828;2022-07-23T01:56:54;7.60;;;6.80;;
54408;SDS011;40315;48.620;9.828;2022-07-23T01:59:23;6.57;;;5.88;;
54408;SDS011;40315;48.620;9.828;2022-07-23T02:01:51;7.53;;;6.43;;
54408;SDS011;40315;48.620;9.828;2022-07-23T02:04:18;6.68;;;5.88;;
54408;SDS011;40315;48.620;9.828;2022-07-23T02:06:46;8.93;;;6.35;;
54408;SDS011;40315;48.620;9.828;2022-07-23T02:09:14;7.88;;;7.07;;
54408;SDS011;40315;48.620;9.828;2022-07-23T02:11:46;8.95;;;6.63;;
54408;SDS011;40315;48.620;9.828;2022-07-23T02:14:13;7.25;;;6.53;;
54408;SDS011;40315;48.620;9.828;2022-07-23T02:16:42;7.38;;;6.68;;
54408;SDS011;40315;48.620;9.828;2022-07-23T02:19:09;7.35;;;6.47;;
54408;SDS011;40315;48.620;9.828;2022-07-23T02:21:36;7.32;;;6.68;;
54408;SDS011;40315;48.620;9.828;2022-07-23T02:24:03;6.45;;;5.85;;
54408;SDS011;40315;48.620;9.828;2022-07-23T02:26:33;6.40;;;5.80;;
54408;SDS011;40315;48.620;9.828;2022-07-23T02:29:04;7.30;;;6.20;;
54408;SDS011;40315;48.620;9.828;2022-07-23T02:31:31;7.60;;;6.88;;
54408;SDS011;40315;48.620;9.828;2022-07-23T02:34:00;6.90;;;6.28;;
54408;SDS011;40315;48.620;9.828;2022-07-23T02:36:27;7.18;;;6.47;;
54408;SDS011;40315;48.620;9.828;2022-07-23T02:38:56;7.03;;;6.43;;
54408;SDS011;40315;48.620;9.828;2022-07-23T02:41:24;7.07;;;6.47;;
54408;SDS011;40315;48.620;9.828;2022-07-23T02:43:53;7.47;;;6.60;;
54408;SDS011;40315;48.620;9.828;2022-07-23T02:46:22;6.85;;;6.15;;
54408;SDS011;40315;48.620;9.828;2022-07-23T02:48:49;7.10;;;6.40;;
54408;SDS011;40315;48.620;9.828;2022-07-23T02:51:20;7.35;;;6.47;;
54408;SDS011;40315;48.620;9.828;2022-07-23T02:53:53;7.05;;;6.35;;
54408;SDS011;40315;48.620;9.828;2022-07-23T02:56:20;7.88;;;6.78;;
54408;SDS011;40315;48.620;9.828;2022-07-23T02:58:50;7.88;;;7.03;;
54408;SDS011;40315;48.620;9.828;2022-07-23T03:01:17;7.20;;;6.50;;
54408;SDS011;40315;48.620;9.828;2022-07-23T03:03:45;7.97;;;7.20;;
54408;SDS011;40315;48.620;9.828;2022-07-23T03:06:14;7.28;;;6.57;;
54408;SDS011;40315;48.620;9.828;2022-07-23T03:08:43;7.13;;;6.43;;
54408;SDS011;40315;48.620;9.828;2022-07-23T03:11:12;6.75;;;6.15;;
54408;SDS011;40315;48.620;9.828;2022-07-23T03:13:40;8.52;;;6.80;;
54408;SDS011;40315;48.620;9.828;2022-07-23T03:16:07;7.90;;;6.63;;
54408;SDS011;40315;48.620;9.828;2022-07-23T03:18:38;6.90;;;6.28;;
54408;SDS011;40315;48.620;9.828;2022-07-23T03:21:05;7.70;;;7.00;;
54408;SDS011;40315;48.620;9.828;2022-07-23T03:23:32;7.57;;;6.78;;
54408;SDS011;40315;48.620;9.828;2022-07-23T03:26:00;8.50;;;7.38;;
54408;SDS011;40315;48.620;9.828;2022-07-23T03:28:27;7.00;;;6.30;;
54408;SDS011;40315;48.620;9.828;2022-07-23T03:30:57;8.57;;;6.57;;
54408;SDS011;40315;48.620;9.828;2022-07-23T03:33:24;7.68;;;6.90;;
54408;SDS011;40315;48.620;9.828;2022-07-23T03:35:52;7.20;;;6.50;;
54408;SDS011;40315;48.620;9.828;2022-07-23T03:38:24;9.00;;;7.22;;
54408;SDS011;40315;48.620;9.828;2022-07-23T03:40:52;7.50;;;6.80;;
54408;SDS011;40315;48.620;9.828;2022-07-23T03:43:20;8.35;;;7.32;;
54408;SDS011;40315;48.620;9.828;2022-07-23T03:45:49;8.90;;;7.63;;
54408;SDS011;40315;48.620;9.828;2022-07-23T03:48:16;8.35;;;7.55;;
54408;SDS011;40315;48.620;9.828;2022-07-23T03:50:46;9.07;;;7.22;;
54408;SDS011;40315;48.620;9.828;2022-07-23T03:53:16;10.68;;;7.95;;
54408;SDS011;40315;48.620;9.828;2022-07-23T03:55:45;8.27;;;7.32;;
54408;SDS011;40315;48.620;9.828;2022-07-23T03:58:13;7.68;;;6.97;;
54408;SDS011;40315;48.620;9.828;2022-07-23T04:00:41;7.65;;;6.85;;
54408;SDS011;40315;48.620;9.828;2022-07-23T04:03:08;7.28;;;6.57;;
54408;SDS011;40315;48.620;9.828;2022-07-23T04:05:35;7.43;;;6.80;;
54408;SDS011;40315;48.620;9.828;2022-07-23T04:08:09;7.78;;;6.40;;
54408;SDS011;40315;48.620;9.828;2022-07-23T04:10:39;7.05;;;6.35;;
54408;SDS011;40315;48.620;9.828;2022-07-23T04:13:07;8.02;;;7.28;;
54408;SDS011;40315;48.620;9.828;2022-07-23T04:15:34;8.23;;;7.25;;
54408;SDS011;40315;48.620;9.828;2022-07-23T04:18:05;7.47;;;6.70;;
54408;SDS011;40315;48.620;9.828;2022-07-23T04:20:51;8.70;;;7.55;;
54408;SDS011;40315;48.620;9.828;2022-07-23T04:23:18;7.70;;;6.90;;
54408;SDS011;40315;48.620;9.828;2022-07-23T04:25:46;7.30;;;6.60;;
54408;SDS011;40315;48.620;9.828;2022-07-23T04:28:13;9.43;;;7.22;;
54408;SDS011;40315;48.620;9.828;2022-07-23T04:30:41;6.95;;;6.35;;
54408;SDS011;40315;48.620;9.828;2022-07-23T04:33:11;6.97;;;6.28;;
54408;SDS011;40315;48.620;9.828;2022-07-23T04:35:39;7.30;;;6.60;;
54408;SDS011;40315;48.620;9.828;2022-07-23T04:38:13;6.65;;;5.97;;
54408;SDS011;40315;48.620;9.828;2022-07-23T04:40:43;7.55;;;6.75;;
54408;SDS011;40315;48.620;9.828;2022-07-23T04:43:11;9.02;;;6.90;;
54408;SDS011;40315;48.620;9.828;2022-07-23T04:45:46;7.28;;;6.57;;
54408;SDS011;40315;48.620;9.828;2022-07-23T04:48:17;6.95;;;6.35;;
54408;SDS011;40315;48.620;9.828;2022-07-23T04:50:45;6.90;;;6.20;;
54408;SDS011;40315;48.620;9.828;2022-07-23T04:53:21;7.30;;;6.25;;
54408;SDS011;40315;48.620;9.828;2022-07-23T04:55:51;6.00;;;5.40;;
54408;SDS011;40315;48.620;9.828;2022-07-23T04:58:19;7.90;;;6.80;;
54408;SDS011;40315;48.620;9.828;2022-07-23T05:00:46;7.30;;;6.43;;
54408;SDS011;40315;48.620;9.828;2022-07-23T05:03:14;6.72;;;6.03;;
54408;SDS011;40315;48.620;9.828;2022-07-23T05:05:45;7.18;;;6.47;;
54408;SDS011;40315;48.620;9.828;2022-07-23T05:08:15;7.25;;;6.55;;
54408;SDS011;40315;48.620;9.828;2022-07-23T05:10:48;7.15;;;6.45;;
54408;SDS011;40315;48.620;9.828;2022-07-23T05:13:17;8.10;;;6.20;;
54408;SDS011;40315;48.620;9.828;2022-07-23T05:15:45;7.85;;;6.78;;
54408;SDS011;40315;48.620;9.828;2022-07-23T05:18:12;6.53;;;5.70;;
54408;SDS011;40315;48.620;9.828;2022-07-23T05:20:40;6.20;;;5.70;;
54408;SDS011;40315;48.620;9.828;2022-07-23T05:23:09;8.02;;;6.82;;
54408;SDS011;40315;48.620;9.828;2022-07-23T05:25:36;6.88;;;6.18;;
54408;SDS011;40315;48.620;9.828;2022-07-23T05:28:04;8.63;;;6.60;;
54408;SDS011;40315;48.620;9.828;2022-07-23T05:30:31;7.80;;;6.63;;
54408;SDS011;40315;48.620;9.828;2022-07-23T05:33:01;7.97;;;6.20;;
54408;SDS011;40315;48.620;9.828;2022-07-23T05:35:28;7.53;;;5.72;;
54408;SDS011;40315;48.620;9.828;2022-07-23T05:38:23;8.23;;;6.78;;
54408;SDS011;40315;48.620;9.828;2022-07-23T05:40:51;6.75;;;6.15;;
54408;SDS011;40315;48.620;9.828;2022-07-23T05:43:20;6.78;;;6.25;;
54408;SDS011;40315;48.620;9.828;2022-07-23T05:45:48;6.38;;;5.80;;
54408;SDS011;40315;48.620;9.828;2022-07-23T05:48:15;6.45;;;5.70;;
54408;SDS011;40315;48.620;9.828;2022-07-23T05:50:55;6.57;;;5.97;;
54408;SDS011;40315;48.620;9.828;2022-07-23T05:53:32;7.70;;;6.88;;
54408;SDS011;40315;48.620;9.828;2022-07-23T05:56:09;6.88;;;6.18;;
54408;SDS011;40315;48.620;9.828;2022-07-23T05:58:39;6.40;;;5.80;;
54408;SDS011;40315;48.620;9.828;2022-07-23T06:01:07;7.07;;;6.40;;
54408;SDS011;40315;48.620;9.828;2022-07-23T06:03:44;7.07;;;6.38;;
54408;SDS011;40315;48.620;9.828;2022-07-23T06:06:11;7.15;;;6.45;;
54408;SDS011;40315;48.620;9.828;2022-07-23T06:08:42;7.30;;;6.60;;
54408;SDS011;40315;48.620;9.828;2022-07-23T06:11:11;6.28;;;5.70;;
54408;SDS011;40315;48.620;9.828;2022-07-23T06:13:38;6.90;;;6.20;;
54408;SDS011;40315;48.620;9.828;2022-07-23T06:16:06;7.28;;;6.43;;
54408;SDS011;40315;48.620;9.828;2022-07-23T06:18:33;6.88;;;6.20;;
54408;SDS011;40315;48.620;9.828;2022-07-23T06:21:00;6.95;;;6.20;;
54408;SDS011;40315;48.620;9.828;2022-07-23T06:23:32;7.22;;;6.57;;
54408;SDS011;40315;48.620;9.828;2022-07-23T06:26:00;7.47;;;6.28;;
54408;SDS011;40315;48.620;9.828;2022-07-23T06:28:28;6.90;;;6.25;;
54408;SDS011;40315;48.620;9.828;2022-07-23T06:30:55;8.70;;;6.10;;
54408;SDS011;40315;48.620;9.828;2022-07-23T06:33:22;7.10;;;6.35;;
54408;SDS011;40315;48.620;9.828;2022-07-23T06:35:51;6.90;;;6.28;;
54408;SDS011;40315;48.620;9.828;2022-07-23T06:38:20;9.68;;;6.35;;
54408;SDS011;40315;48.620;9.828;2022-07-23T06:40:47;7.00;;;6.35;;
54408;SDS011;40315;48.620;9.828;2022-07-23T06:43:15;7.28;;;6.50;;
54408;SDS011;40315;48.620;9.828;2022-07-23T06:45:44;6.65;;;6.03;;
54408;SDS011;40315;48.620;9.828;2022-07-23T06:48:12;7.90;;;6.13;;
54408;SDS011;40315;48.620;9.828;2022-07-23T06:50:39;7.43;;;6.22;;
54408;SDS011;40315;48.620;9.828;2022-07-23T06:53:06;6.35;;;5.70;;
54408;SDS011;40315;48.620;9.828;2022-07-23T06:55:33;6.53;;;5.90;;
54408;SDS011;40315;48.620;9.828;2022-07-23T06:58:05;6.30;;;5.80;;
54408;SDS011;40315;48.620;9.828;2022-07-23T07:00:35;5.82;;;5.32;;
54408;SDS011;40315;48.620;9.828;2022-07-23T07:03:03;5.55;;;5.05;;
54408;SDS011;40315;48.620;9.828;2022-07-23T07:05:32;5.22;;;4.80;;
54408;SDS011;40315;48.620;9.828;2022-07-23T07:07:59;5.60;;;5.10;;
54408;SDS011;40315;48.620;9.828;2022-07-23T07:10:26;7.65;;;5.63;;
54408;SDS011;40315;48.620;9.828;2022-07-23T07:12:53;5.72;;;5.15;;
54408;SDS011;40315;48.620;9.828;2022-07-23T07:15:23;5.85;;;5.28;;
54408;SDS011;40315;48.620;9.828;2022-07-23T07:17:51;7.20;;;5.70;;
54408;SDS011;40315;48.620;9.828;2022-07-23T07:20:18;6.10;;;5.50;;
54408;SDS011;40315;48.620;9.828;2022-07-23T07:22:48;6.30;;;5.28;;
54408;SDS011;40315;48.620;9.828;2022-07-23T07:25:17;5.55;;;5.00;;
54408;SDS011;40315;48.620;9.828;2022-07-23T07:27:44;5.70;;;5.30;;
54408;SDS011;40315;48.620;9.828;2022-07-23T07:30:12;5.38;;;4.88;;
54408;SDS011;40315;48.620;9.828;2022-07-23T07:32:39;5.20;;;4.75;;
54408;SDS011;40315;48.620;9.828;2022-07-23T07:35:08;6.15;;;5.28;;
54408;SDS011;40315;48.620;9.828;2022-07-23T07:37:38;5.30;;;4.90;;
54408;SDS011;40315;48.620;9.828;2022-07-23T07:40:08;5.50;;;5.00;;
54408;SDS011;40315;48.620;9.828;2022-07-23T07:42:43;5.80;;;5.30;;
54408;SDS011;40315;48.620;9.828;2022-07-23T07:45:10;5.60;;;5.10;;
54408;SDS011;40315;48.620;9.828;2022-07-23T07:47:40;5.75;;;5.20;;
54408;SDS011;40315;48.620;9.828;2022-07-23T07:50:09;5.65;;;5.15;;
54408;SDS011;40315;48.620;9.828;2022-07-23T07:52:39;6.25;;;5.75;;
54408;SDS011;40315;48.620;9.828;2022-07-23T07:55:08;5.72;;;5.22;;
54408;SDS011;40315;48.620;9.828;2022-07-23T07:57:36;6.05;;;5.43;;
54408;SDS011;40315;48.620;9.828;2022-07-23T08:00:06;6.00;;;5.40;;
54408;SDS011;40315;48.620;9.828;2022-07-23T08:02:42;5.57;;;5.13;;
54408;SDS011;40315;48.620;9.828;2022-07-23T08:05:11;5.78;;;5.18;;
54408;SDS011;40315;48.620;9.828;2022-07-23T08:07:38;8.10;;;5.38;;
54408;SDS011;40315;48.620;9.828;2022-07-23T08:10:06;6.00;;;5.50;;
54408;SDS011;40315;48.620;9.828;2022-07-23T08:12:38;6.85;;;6.10;;
54408;SDS011;40315;48.620;9.828;2022-07-23T08:15:07;6.78;;;6.15;;
54408;SDS011;40315;48.620;9.828;2022-07-23T08:17:34;6.50;;;5.90;;
54408;SDS011;40315;48.620;9.828;2022-07-23T08:20:02;7.10;;;6.03;;
54408;SDS011;40315;48.620;9.828;2022-07-23T08:22:44;7.20;;;5.75;;
54408;SDS011;40315;48.620;9.828;2022-07-23T08:25:12;6.50;;;5.90;;
54408;SDS011;40315;48.620;9.828;2022-07-23T08:27:40;6.53;;;5.82;;
54408;SDS011;40315;48.620;9.828;2022-07-23T08:30:07;6.60;;;5.90;;
54408;SDS011;40315;48.620;9.828;2022-07-23T08:35:21;8.48;;;6.88;;
54408;SDS011;40315;48.620;9.828;2022-07-23T08:37:51;7.15;;;6.32;;
54408;SDS011;40315;48.620;9.828;2022-07-23T08:40:18;7.25;;;6.45;;
54408;SDS011;40315;48.620;9.828;2022-07-23T08:42:47;7.03;;;6.35;;
54408;SDS011;40315;48.620;9.828;2022-07-23T08:45:15;7.45;;;6.75;;
54408;SDS011;40315;48.620;9.828;2022-07-23T08:47:45;7.47;;;6.78;;
54408;SDS011;40315;48.620;9.828;2022-07-23T08:50:15;7.32;;;6.63;;
54408;SDS011;40315;48.620;9.828;2022-07-23T08:52:45;7.38;;;6.60;;
54408;SDS011;40315;48.620;9.828;2022-07-23T08:55:17;7.00;;;6.30;;
54408;SDS011;40315;48.620;9.828;2022-07-23T08:57:45;7.35;;;6.65;;
54408;SDS011;40315;48.620;9.828;2022-07-23T09:00:16;6.32;;;5.72;;
54408;SDS011;40315;48.620;9.828;2022-07-23T09:02:45;7.18;;;6.57;;
54408;SDS011;40315;48.620;9.828;2022-07-23T09:05:15;7.00;;;6.47;;
54408;SDS011;40315;48.620;9.828;2022-07-23T09:08:03;9.07;;;7.13;;
54408;SDS011;40315;48.620;9.828;2022-07-23T09:10:46;9.38;;;6.13;;
54408;SDS011;40315;48.620;9.828;2022-07-23T09:13:24;7.50;;;6.80;;
54408;SDS011;40315;48.620;9.828;2022-07-23T09:15:55;6.80;;;6.20;;
54408;SDS011;40315;48.620;9.828;2022-07-23T09:18:29;7.22;;;6.63;;
54408;SDS011;40315;48.620;9.828;2022-07-23T09:21:07;6.75;;;6.15;;
54408;SDS011;40315;48.620;9.828;2022-07-23T09:23:40;7.50;;;6.80;;
54408;SDS011;40315;48.620;9.828;2022-07-23T09:26:20;7.00;;;6.32;;
54408;SDS011;40315;48.620;9.828;2022-07-23T09:29:02;7.25;;;6.47;;
54408;SDS011;40315;48.620;9.828;2022-07-23T09:31:32;7.50;;;6.80;;
54408;SDS011;40315;48.620;9.828;2022-07-23T09:34:08;7.90;;;6.45;;
54408;SDS011;40315;48.620;9.828;2022-07-23T09:36:37;7.20;;;6.57;;
54408;SDS011;40315;48.620;9.828;2022-07-23T09:39:05;7.40;;;6.70;;
54408;SDS011;40315;48.620;9.828;2022-07-23T09:41:38;7.13;;;6.43;;
54408;SDS011;40315;48.620;9.828;2022-07-23T09:44:08;6.85;;;6.30;;
54408;SDS011;40315;48.620;9.828;2022-07-23T09:46:36;7.13;;;6.53;;
54408;SDS011;40315;48.620;9.828;2022-07-23T09:51:54;8.07;;;7.28;;
54408;SDS011;40315;48.620;9.828;2022-07-23T09:54:29;7.00;;;6.40;;
54408;SDS011;40315;48.620;9.828;2022-07-23T09:57:00;7.80;;;7.10;;
54408;SDS011;40315;48.620;9.828;2022-07-23T09:59:30;7.30;;;6.60;;
54408;SDS011;40315;48.620;9.828;2022-07-23T10:01:59;7.35;;;6.70;;
54408;SDS011;40315;48.620;9.828;2022-07-23T10:04:32;7.13;;;6.53;;
54408;SDS011;40315;48.620;9.828;2022-07-23T10:07:00;7.03;;;6.43;;
54408;SDS011;40315;48.620;9.828;2022-07-23T10:09:48;7.10;;;6.47;;
54408;SDS011;40315;48.620;9.828;2022-07-23T10:12:39;6.95;;;6.25;;
54408;SDS011;40315;48.620;9.828;2022-07-23T10:15:29;7.00;;;6.40;;
54408;SDS011;40315;48.620;9.828;2022-07-23T10:17:57;7.40;;;6.70;;
54408;SDS011;40315;48.620;9.828;2022-07-23T10:20:24;7.25;;;6.55;;
54408;SDS011;40315;48.620;9.828;2022-07-23T10:22:54;6.65;;;6.05;;
54408;SDS011;40315;48.620;9.828;2022-07-23T10:25:30;7.10;;;6.50;;
54408;SDS011;40315;48.620;9.828;2022-07-23T10:28:14;7.93;;;7.22;;
54408;SDS011;40315;48.620;9.828;2022-07-23T10:31:00;7.20;;;6.57;;
54408;SDS011;40315;48.620;9.828;2022-07-23T10:33:37;7.18;;;6.57;;
54408;SDS011;40315;48.620;9.828;2022-07-23T10:36:11;7.40;;;6.70;;
54408;SDS011;40315;48.620;9.828;2022-07-23T10:38:47;7.78;;;7.05;;
54408;SDS011;40315;48.620;9.828;2022-07-23T10:41:30;7.05;;;6.47;;
54408;SDS011;40315;48.620;9.828;2022-07-23T10:44:07;7.45;;;6.75;;
54408;SDS011;40315;48.620;9.828;2022-07-23T10:49:36;6.65;;;6.10;;
54408;SDS011;40315;48.620;9.828;2022-07-23T10:52:16;6.70;;;6.13;;
54408;SDS011;40315;48.620;9.828;2022-07-23T10:54:53;7.40;;;6.65;;
54408;SDS011;40315;48.620;9.828;2022-07-23T10:57:23;7.25;;;6.55;;
54408;SDS011;40315;48.620;9.828;2022-07-23T11:00:10;6.70;;;6.10;;
54408;SDS011;40315;48.620;9.828;2022-07-23T11:02:45;6.80;;;6.10;;
54408;SDS011;40315;48.620;9.828;2022-07-23T11:05:14;7.40;;;6.72;;
54408;SDS011;40315;48.620;9.828;2022-07-23T11:10:46;7.40;;;6.65;;
54408;SDS011;40315;48.620;9.828;2022-07-23T11:16:07;6.85;;;6.25;;
54408;SDS011;40315;48.620;9.828;2022-07-23T11:18:59;7.35;;;6.65;;
54408;SDS011;40315;48.620;9.828;2022-07-23T11:21:48;7.20;;;6.50;;
54408;SDS011;40315;48.620;9.828;2022-07-23T11:24:18;7.03;;;6.22;;
54408;SDS011;40315;48.620;9.828;2022-07-23T11:26:48;6.95;;;6.35;;
54408;SDS011;40315;48.620;9.828;2022-07-23T11:29:41;6.70;;;6.10;;
54408;SDS011;40315;48.620;9.828;2022-07-23T11:32:31;7.20;;;6.43;;
54408;SDS011;40315;48.620;9.828;2022-07-23T11:35:18;5.90;;;5.40;;
54408;SDS011;40315;48.620;9.828;2022-07-23T11:37:46;6.65;;;6.05;;
54408;SDS011;40315;48.620;9.828;2022-07-23T11:40:14;7.13;;;6.53;;
54408;SDS011;40315;48.620;9.828;2022-07-23T11:42:57;7.40;;;6.70;;
54408;SDS011;40315;48.620;9.828;2022-07-23T11:45:29;7.72;;;7.03;;
54408;SDS011;40315;48.620;9.828;2022-07-23T11:47:59;7.05;;;6.45;;
54408;SDS011;40315;48.620;9.828;2022-07-23T11:50:29;7.03;;;6.45;;
54408;SDS011;40315;48.620;9.828;2022-07-23T11:52:58;7.40;;;6.70;;
54408;SDS011;40315;48.620;9.828;2022-07-23T11:55:26;6.82;;;6.22;;
54408;SDS011;40315;48.620;9.828;2022-07-23T11:57:54;7.15;;;6.43;;
54408;SDS011;40315;48.620;9.828;2022-07-23T12:00:23;6.50;;;6.00;;
54408;SDS011;40315;48.620;9.828;2022-07-23T12:02:52;7.15;;;6.55;;
54408;SDS011;40315;48.620;9.828;2022-07-23T12:05:23;6.72;;;6.13;;
54408;SDS011;40315;48.620;9.828;2022-07-23T12:07:52;7.55;;;6.82;;
54408;SDS011;40315;48.620;9.828;2022-07-23T12:10:22;6.78;;;6.18;;
54408;SDS011;40315;48.620;9.828;2022-07-23T12:12:51;7.70;;;6.93;;
54408;SDS011;40315;48.620;9.828;2022-07-23T12:15:23;6.68;;;6.07;;
54408;SDS011;40315;48.620;9.828;2022-07-23T12:17:57;7.15;;;6.47;;
54408;SDS011;40315;48.620;9.828;2022-07-23T12:20:27;6.55;;;5.95;;
54408;SDS011;40315;48.620;9.828;2022-07-23T12:22:57;6.53;;;5.95;;
54408;SDS011;40315;48.620;9.828;2022-07-23T12:25:26;6.50;;;5.90;;
54408;SDS011;40315;48.620;9.828;2022-07-23T12:27:58;6.40;;;5.80;;
54408;SDS011;40315;48.620;9.828;2022-07-23T12:30:30;6.57;;;6.05;;
54408;SDS011;40315;48.620;9.828;2022-07-23T12:33:02;6.65;;;5.90;;
54408;SDS011;40315;48.620;9.828;2022-07-23T12:35:32;7.57;;;6.97;;
54408;SDS011;40315;48.620;9.828;2022-07-23T12:38:05;6.75;;;6.15;;
54408;SDS011;40315;48.620;9.828;2022-07-23T12:40:34;6.72;;;6.03;;
54408;SDS011;40315;48.620;9.828;2022-07-23T12:43:03;7.18;;;6.47;;
54408;SDS011;40315;48.620;9.828;2022-07-23T12:45:42;7.22;;;6.53;;
54408;SDS011;40315;48.620;9.828;2022-07-23T12:48:21;6.60;;;6.00;;
54408;SDS011;40315;48.620;9.828;2022-07-23T12:50:57;6.80;;;6.10;;
54408;SDS011;40315;48.620;9.828;2022-07-23T12:53:27;7.32;;;6.30;;
54408;SDS011;40315;48.620;9.828;2022-07-23T12:56:00;7.07;;;6.47;;
54408;SDS011;40315;48.620;9.828;2022-07-23T12:58:39;7.75;;;6.20;;
54408;SDS011;40315;48.620;9.828;2022-07-23T13:01:21;6.75;;;6.25;;
54408;SDS011;40315;48.620;9.828;2022-07-23T13:04:01;7.00;;;6.28;;
54408;SDS011;40315;48.620;9.828;2022-07-23T13:06:33;6.88;;;6.18;;
54408;SDS011;40315;48.620;9.828;2022-07-23T13:09:04;7.30;;;6.57;;
54408;SDS011;40315;48.620;9.828;2022-07-23T13:11:33;6.10;;;5.50;;
54408;SDS011;40315;48.620;9.828;2022-07-23T13:14:01;6.40;;;5.80;;
54408;SDS011;40315;48.620;9.828;2022-07-23T13:16:28;5.90;;;5.30;;
54408;SDS011;40315;48.620;9.828;2022-07-23T13:18:57;6.38;;;5.50;;
54408;SDS011;40315;48.620;9.828;2022-07-23T13:21:25;5.78;;;5.20;;
54408;SDS011;40315;48.620;9.828;2022-07-23T13:23:54;5.70;;;5.20;;
54408;SDS011;40315;48.620;9.828;2022-07-23T13:26:22;5.65;;;5.15;;
54408;SDS011;40315;48.620;9.828;2022-07-23T13:28:49;6.13;;;5.18;;
54408;SDS011;40315;48.620;9.828;2022-07-23T13:31:16;5.70;;;5.20;;
54408;SDS011;40315;48.620;9.828;2022-07-23T13:33:44;5.85;;;5.25;;
54408;SDS011;40315;48.620;9.828;2022-07-23T13:36:11;5.60;;;5.18;;
54408;SDS011;40315;48.620;9.828;2022-07-23T13:38:40;5.80;;;5.25;;
54408;SDS011;40315;48.620;9.828;2022-07-23T13:41:11;5.95;;;5.35;;
54408;SDS011;40315;48.620;9.828;2022-07-23T13:43:41;6.28;;;5.68;;
54408;SDS011;40315;48.620;9.828;2022-07-23T13:46:08;5.93;;;5.47;;
54408;SDS011;40315;48.620;9.828;2022-07-23T13:48:35;5.45;;;5.05;;
54408;SDS011;40315;48.620;9.828;2022-07-23T13:51:02;5.93;;;5.43;;
54408;SDS011;40315;48.620;9.828;2022-07-23T13:53:30;5.85;;;5.22;;
54408;SDS011;40315;48.620;9.828;2022-07-23T13:55:57;6.03;;;5.05;;
54408;SDS011;40315;48.620;9.828;2022-07-23T13:58:25;5.30;;;4.82;;
54408;SDS011;40315;48.620;9.828;2022-07-23T14:00:53;5.35;;;4.95;;
54408;SDS011;40315;48.620;9.828;2022-07-23T14:03:20;5.97;;;5.40;;
54408;SDS011;40315;48.620;9.828;2022-07-23T14:05:50;6.38;;;5.78;;
54408;SDS011;40315;48.620;9.828;2022-07-23T14:08:17;6.40;;;5.90;;
54408;SDS011;40315;48.620;9.828;2022-07-23T14:10:44;5.57;;;5.07;;
54408;SDS011;40315;48.620;9.828;2022-07-23T14:13:11;6.22;;;5.63;;
54408;SDS011;40315;48.620;9.828;2022-07-23T14:15:40;6.15;;;5.38;;
54408;SDS011;40315;48.620;9.828;2022-07-23T14:18:08;6.40;;;5.80;;
54408;SDS011;40315;48.620;9.828;2022-07-23T14:20:35;6.43;;;5.82;;
54408;SDS011;40315;48.620;9.828;2022-07-23T14:23:05;5.75;;;5.25;;
54408;SDS011;40315;48.620;9.828;2022-07-23T14:25:32;6.78;;;6.18;;
54408;SDS011;40315;48.620;9.828;2022-07-23T14:27:59;5.78;;;5.28;;
54408;SDS011;40315;48.620;9.828;2022-07-23T14:30:27;6.10;;;5.70;;
54408;SDS011;40315;48.620;9.828;2022-07-23T14:32:55;6.63;;;6.03;;
54408;SDS011;40315;48.620;9.828;2022-07-23T14:35:24;6.72;;;6.22;;
54408;SDS011;40315;48.620;9.828;2022-07-23T14:37:54;5.95;;;5.45;;
54408;SDS011;40315;48.620;9.828;2022-07-23T14:40:21;6.03;;;5.43;;
54408;SDS011;40315;48.620;9.828;2022-07-23T14:42:49;6.45;;;5.82;;
54408;SDS011;40315;48.620;9.828;2022-07-23T14:45:17;5.95;;;5.45;;
54408;SDS011;40315;48.620;9.828;2022-07-23T14:47:46;5.53;;;5.13;;
54408;SDS011;40315;48.620;9.828;2022-07-23T14:50:15;5.75;;;5.25;;
54408;SDS011;40315;48.620;9.828;2022-07-23T14:52:42;6.63;;;6.00;;
54408;SDS011;40315;48.620;9.828;2022-07-23T14:55:09;6.25;;;5.75;;
54408;SDS011;40315;48.620;9.828;2022-07-23T14:57:36;7.20;;;6.18;;
54408;SDS011;40315;48.620;9.828;2022-07-23T15:00:04;6.85;;;5.90;;
54408;SDS011;40315;48.620;9.828;2022-07-23T15:02:32;6.22;;;5.63;;
54408;SDS011;40315;48.620;9.828;2022-07-23T15:05:02;5.97;;;5.43;;
54408;SDS011;40315;48.620;9.828;2022-07-23T15:07:33;7.32;;;5.78;;
54408;SDS011;40315;48.620;9.828;2022-07-23T15:10:03;6.28;;;5.78;;
54408;SDS011;40315;48.620;9.828;2022-07-23T15:12:34;5.93;;;5.43;;
54408;SDS011;40315;48.620;9.828;2022-07-23T15:15:01;8.18;;;6.78;;
54408;SDS011;40315;48.620;9.828;2022-07-23T15:17:29;6.70;;;6.00;;
54408;SDS011;40315;48.620;9.828;2022-07-23T15:19:56;6.80;;;6.20;;
54408;SDS011;40315;48.620;9.828;2022-07-23T15:22:23;6.03;;;5.57;;
54408;SDS011;40315;48.620;9.828;2022-07-23T15:24:52;6.82;;;6.22;;
54408;SDS011;40315;48.620;9.828;2022-07-23T15:27:19;6.40;;;5.80;;
54408;SDS011;40315;48.620;9.828;2022-07-23T15:29:46;6.25;;;5.65;;
54408;SDS011;40315;48.620;9.828;2022-07-23T15:32:16;6.65;;;6.10;;